sensor_id;sensor_type;location;lat;lon;timestamp;P1;durP1;ratioP1;P2;durP2;ratioP2
23181;SDS011;11759;51.282;6.642;2023-05-10T00:00:44;101.38;;;29.48;;
23181;SDS011;11759;51.282;6.642;2023-05-10T00:03:10;85.00;;;24.67;;
23181;SDS011;11759;51.282;6.642;2023-05-10T00:05:37;86.82;;;28.00;;
23181;SDS011;11759;51.282;6.642;2023-05-10T00:08:04;91.13;;;24.80;;
23181;SDS011;11759;51.282;6.642;2023-05-10T00:10:30;103.65;;;27.30;;
23181;SDS011;11759;51.282;6.642;2023-05-10T00:12:57;98.70;;;28.15;;
23181;SDS011;11759;51.282;6.642;2023-05-10T00:15:24;92.18;;;24.20;;
23181;SDS011;11759;51.282;6.642;2023-05-10T00:17:51;95.15;;;28.23;;
23181;SDS011;11759;51.282;6.642;2023-05-10T00:20:17;83.00;;;29.95;;
23181;SDS011;11759;51.282;6.642;2023-05-10T00:22:44;80.43;;;26.00;;
23181;SDS011;11759;51.282;6.642;2023-05-10T00:25:11;76.05;;;27.45;;
23181;SDS011;11759;51.282;6.642;2023-05-10T00:27:37;72.70;;;23.88;;
23181;SDS011;11759;51.282;6.642;2023-05-10T00:30:04;73.32;;;23.17;;
23181;SDS011;11759;51.282;6.642;2023-05-10T00:32:31;71.25;;;24.98;;
23181;SDS011;11759;51.282;6.642;2023-05-10T00:34:58;63.28;;;20.85;;
23181;SDS011;11759;51.282;6.642;2023-05-10T00:37:26;69.88;;;22.83;;
23181;SDS011;11759;51.282;6.642;2023-05-10T00:39:53;63.47;;;20.77;;
23181;SDS011;11759;51.282;6.642;2023-05-10T00:42:20;86.22;;;30.95;;
23181;SDS011;11759;51.282;6.642;2023-05-10T00:44:47;72.00;;;21.70;;
23181;SDS011;11759;51.282;6.642;2023-05-10T00:47:13;113.75;;;40.13;;
23181;SDS011;11759;51.282;6.642;2023-05-10T00:49:40;66.53;;;20.40;;
23181;SDS011;11759;51.282;6.642;2023-05-10T00:52:08;77.50;;;23.65;;
23181;SDS011;11759;51.282;6.642;2023-05-10T00:54:35;70.43;;;20.40;;
23181;SDS011;11759;51.282;6.642;2023-05-10T00:57:02;74.60;;;24.88;;
23181;SDS011;11759;51.282;6.642;2023-05-10T00:59:29;73.18;;;20.17;;
23181;SDS011;11759;51.282;6.642;2023-05-10T01:01:56;87.47;;;27.88;;
23181;SDS011;11759;51.282;6.642;2023-05-10T01:04:24;81.45;;;22.65;;
23181;SDS011;11759;51.282;6.642;2023-05-10T01:06:52;92.30;;;33.03;;
23181;SDS011;11759;51.282;6.642;2023-05-10T01:09:20;76.22;;;22.30;;
23181;SDS011;11759;51.282;6.642;2023-05-10T01:11:47;80.15;;;26.40;;
23181;SDS011;11759;51.282;6.642;2023-05-10T01:14:15;73.07;;;20.60;;
23181;SDS011;11759;51.282;6.642;2023-05-10T01:16:44;87.13;;;23.67;;
23181;SDS011;11759;51.282;6.642;2023-05-10T01:19:17;89.55;;;24.77;;
23181;SDS011;11759;51.282;6.642;2023-05-10T01:24:32;83.68;;;23.95;;
23181;SDS011;11759;51.282;6.642;2023-05-10T01:35:36;103.47;;;29.77;;
23181;SDS011;11759;51.282;6.642;2023-05-10T01:43:43;99.22;;;29.77;;
23181;SDS011;11759;51.282;6.642;2023-05-10T01:46:20;88.05;;;23.00;;
23181;SDS011;11759;51.282;6.642;2023-05-10T01:49:00;87.40;;;21.98;;
23181;SDS011;11759;51.282;6.642;2023-05-10T01:51:27;89.28;;;24.42;;
23181;SDS011;11759;51.282;6.642;2023-05-10T01:54:00;92.38;;;23.00;;
23181;SDS011;11759;51.282;6.642;2023-05-10T01:56:29;81.45;;;21.70;;
23181;SDS011;11759;51.282;6.642;2023-05-10T01:58:57;85.20;;;25.60;;
23181;SDS011;11759;51.282;6.642;2023-05-10T02:01:25;79.25;;;23.50;;
23181;SDS011;11759;51.282;6.642;2023-05-10T02:03:53;72.43;;;20.45;;
23181;SDS011;11759;51.282;6.642;2023-05-10T02:06:20;74.53;;;20.73;;
23181;SDS011;11759;51.282;6.642;2023-05-10T02:08:48;67.07;;;19.48;;
23181;SDS011;11759;51.282;6.642;2023-05-10T02:11:15;94.40;;;32.28;;
23181;SDS011;11759;51.282;6.642;2023-05-10T02:13:43;74.80;;;20.15;;
23181;SDS011;11759;51.282;6.642;2023-05-10T02:16:11;78.93;;;23.73;;
23181;SDS011;11759;51.282;6.642;2023-05-10T02:18:38;68.32;;;18.48;;
23181;SDS011;11759;51.282;6.642;2023-05-10T02:21:07;73.68;;;27.20;;
23181;SDS011;11759;51.282;6.642;2023-05-10T02:23:37;61.35;;;18.00;;
23181;SDS011;11759;51.282;6.642;2023-05-10T02:26:04;69.40;;;18.77;;
23181;SDS011;11759;51.282;6.642;2023-05-10T02:28:32;63.67;;;18.88;;
23181;SDS011;11759;51.282;6.642;2023-05-10T02:30:59;63.55;;;18.25;;
23181;SDS011;11759;51.282;6.642;2023-05-10T02:33:26;74.80;;;22.73;;
23181;SDS011;11759;51.282;6.642;2023-05-10T02:35:53;56.35;;;17.10;;
23181;SDS011;11759;51.282;6.642;2023-05-10T02:38:21;58.60;;;20.45;;
23181;SDS011;11759;51.282;6.642;2023-05-10T02:40:49;61.25;;;19.40;;
23181;SDS011;11759;51.282;6.642;2023-05-10T02:43:16;58.47;;;18.52;;
23181;SDS011;11759;51.282;6.642;2023-05-10T02:45:45;56.72;;;17.48;;
23181;SDS011;11759;51.282;6.642;2023-05-10T02:48:13;56.83;;;17.13;;
23181;SDS011;11759;51.282;6.642;2023-05-10T02:50:42;60.42;;;20.65;;
23181;SDS011;11759;51.282;6.642;2023-05-10T02:53:11;56.03;;;16.85;;
23181;SDS011;11759;51.282;6.642;2023-05-10T02:55:42;70.15;;;22.23;;
23181;SDS011;11759;51.282;6.642;2023-05-10T02:58:13;57.83;;;17.35;;
23181;SDS011;11759;51.282;6.642;2023-05-10T03:00:40;65.25;;;19.38;;
23181;SDS011;11759;51.282;6.642;2023-05-10T03:03:12;62.55;;;17.83;;
23181;SDS011;11759;51.282;6.642;2023-05-10T03:05:40;62.47;;;19.52;;
23181;SDS011;11759;51.282;6.642;2023-05-10T03:08:08;52.13;;;16.27;;
23181;SDS011;11759;51.282;6.642;2023-05-10T03:10:39;79.68;;;29.73;;
23181;SDS011;11759;51.282;6.642;2023-05-10T03:13:26;64.97;;;21.88;;
23181;SDS011;11759;51.282;6.642;2023-05-10T03:16:19;66.38;;;18.35;;
23181;SDS011;11759;51.282;6.642;2023-05-10T03:18:56;64.22;;;18.70;;
23181;SDS011;11759;51.282;6.642;2023-05-10T03:21:37;58.85;;;17.88;;
23181;SDS011;11759;51.282;6.642;2023-05-10T03:24:06;74.75;;;23.20;;
23181;SDS011;11759;51.282;6.642;2023-05-10T03:26:43;67.18;;;17.85;;
23181;SDS011;11759;51.282;6.642;2023-05-10T03:29:16;68.80;;;21.70;;
23181;SDS011;11759;51.282;6.642;2023-05-10T03:31:43;62.28;;;18.38;;
23181;SDS011;11759;51.282;6.642;2023-05-10T03:34:11;79.25;;;24.50;;
23181;SDS011;11759;51.282;6.642;2023-05-10T03:36:54;70.55;;;20.55;;
23181;SDS011;11759;51.282;6.642;2023-05-10T03:39:26;70.60;;;19.90;;
23181;SDS011;11759;51.282;6.642;2023-05-10T03:41:59;80.20;;;24.48;;
23181;SDS011;11759;51.282;6.642;2023-05-10T03:44:39;88.90;;;21.42;;
23181;SDS011;11759;51.282;6.642;2023-05-10T03:47:14;118.57;;;35.33;;
23181;SDS011;11759;51.282;6.642;2023-05-10T03:49:42;84.35;;;22.83;;
23181;SDS011;11759;51.282;6.642;2023-05-10T03:52:11;96.97;;;23.75;;
23181;SDS011;11759;51.282;6.642;2023-05-10T03:54:41;111.90;;;29.73;;
23181;SDS011;11759;51.282;6.642;2023-05-10T03:57:14;100.93;;;26.65;;
23181;SDS011;11759;51.282;6.642;2023-05-10T03:59:44;107.53;;;27.23;;
23181;SDS011;11759;51.282;6.642;2023-05-10T04:02:13;119.47;;;27.67;;
23181;SDS011;11759;51.282;6.642;2023-05-10T04:04:43;133.30;;;30.80;;
23181;SDS011;11759;51.282;6.642;2023-05-10T04:07:10;121.80;;;27.95;;
23181;SDS011;11759;51.282;6.642;2023-05-10T04:09:40;146.02;;;34.13;;
23181;SDS011;11759;51.282;6.642;2023-05-10T04:12:07;135.65;;;32.35;;
23181;SDS011;11759;51.282;6.642;2023-05-10T04:14:37;144.70;;;34.65;;
23181;SDS011;11759;51.282;6.642;2023-05-10T04:17:04;124.50;;;31.83;;
23181;SDS011;11759;51.282;6.642;2023-05-10T04:19:32;162.27;;;44.25;;
23181;SDS011;11759;51.282;6.642;2023-05-10T04:22:01;139.25;;;29.63;;
23181;SDS011;11759;51.282;6.642;2023-05-10T04:24:29;161.57;;;43.65;;
23181;SDS011;11759;51.282;6.642;2023-05-10T04:26:57;134.00;;;29.63;;
23181;SDS011;11759;51.282;6.642;2023-05-10T04:29:25;137.13;;;33.42;;
23181;SDS011;11759;51.282;6.642;2023-05-10T04:31:52;131.65;;;28.73;;
23181;SDS011;11759;51.282;6.642;2023-05-10T04:34:20;123.57;;;31.10;;
23181;SDS011;11759;51.282;6.642;2023-05-10T04:36:47;128.25;;;30.00;;
23181;SDS011;11759;51.282;6.642;2023-05-10T04:39:14;120.10;;;30.08;;
23181;SDS011;11759;51.282;6.642;2023-05-10T04:41:41;121.50;;;31.02;;
23181;SDS011;11759;51.282;6.642;2023-05-10T04:44:10;132.43;;;30.27;;
23181;SDS011;11759;51.282;6.642;2023-05-10T04:46:50;126.22;;;30.40;;
23181;SDS011;11759;51.282;6.642;2023-05-10T04:49:16;131.13;;;31.77;;
23181;SDS011;11759;51.282;6.642;2023-05-10T04:51:44;132.50;;;33.15;;
23181;SDS011;11759;51.282;6.642;2023-05-10T04:54:10;125.13;;;30.50;;
23181;SDS011;11759;51.282;6.642;2023-05-10T04:56:37;156.73;;;42.30;;
23181;SDS011;11759;51.282;6.642;2023-05-10T04:59:03;139.27;;;33.33;;
23181;SDS011;11759;51.282;6.642;2023-05-10T05:01:30;133.38;;;35.50;;
23181;SDS011;11759;51.282;6.642;2023-05-10T05:03:57;119.65;;;30.83;;
23181;SDS011;11759;51.282;6.642;2023-05-10T05:06:23;147.38;;;41.78;;
23181;SDS011;11759;51.282;6.642;2023-05-10T05:08:51;119.32;;;31.42;;
23181;SDS011;11759;51.282;6.642;2023-05-10T05:11:17;125.47;;;30.90;;
23181;SDS011;11759;51.282;6.642;2023-05-10T05:13:44;134.32;;;38.88;;
23181;SDS011;11759;51.282;6.642;2023-05-10T05:16:11;109.78;;;31.67;;
23181;SDS011;11759;51.282;6.642;2023-05-10T05:18:38;121.07;;;32.42;;
23181;SDS011;11759;51.282;6.642;2023-05-10T05:21:14;118.47;;;33.75;;
23181;SDS011;11759;51.282;6.642;2023-05-10T05:23:42;114.60;;;29.52;;
23181;SDS011;11759;51.282;6.642;2023-05-10T05:26:09;112.03;;;33.80;;
23181;SDS011;11759;51.282;6.642;2023-05-10T05:28:35;105.00;;;29.27;;
23181;SDS011;11759;51.282;6.642;2023-05-10T05:31:06;108.85;;;31.25;;
23181;SDS011;11759;51.282;6.642;2023-05-10T05:33:34;107.00;;;29.48;;
23181;SDS011;11759;51.282;6.642;2023-05-10T05:36:01;121.20;;;37.63;;
23181;SDS011;11759;51.282;6.642;2023-05-10T05:38:29;104.93;;;33.47;;
23181;SDS011;11759;51.282;6.642;2023-05-10T05:40:55;99.07;;;31.58;;
23181;SDS011;11759;51.282;6.642;2023-05-10T05:43:22;96.05;;;31.23;;
23181;SDS011;11759;51.282;6.642;2023-05-10T05:45:48;97.63;;;31.08;;
23181;SDS011;11759;51.282;6.642;2023-05-10T05:48:15;116.70;;;40.83;;
23181;SDS011;11759;51.282;6.642;2023-05-10T05:50:42;100.00;;;30.42;;
23181;SDS011;11759;51.282;6.642;2023-05-10T05:53:08;96.18;;;34.38;;
23181;SDS011;11759;51.282;6.642;2023-05-10T05:55:35;101.75;;;31.05;;
23181;SDS011;11759;51.282;6.642;2023-05-10T05:58:02;104.82;;;33.22;;
23181;SDS011;11759;51.282;6.642;2023-05-10T06:00:28;96.95;;;30.33;;
23181;SDS011;11759;51.282;6.642;2023-05-10T06:02:55;131.13;;;34.20;;
23181;SDS011;11759;51.282;6.642;2023-05-10T06:05:22;107.45;;;32.33;;
23181;SDS011;11759;51.282;6.642;2023-05-10T06:07:48;100.72;;;29.17;;
23181;SDS011;11759;51.282;6.642;2023-05-10T06:10:15;167.50;;;57.05;;
23181;SDS011;11759;51.282;6.642;2023-05-10T06:12:41;114.88;;;32.35;;
23181;SDS011;11759;51.282;6.642;2023-05-10T06:15:08;148.35;;;45.35;;
23181;SDS011;11759;51.282;6.642;2023-05-10T06:17:35;107.68;;;30.45;;
23181;SDS011;11759;51.282;6.642;2023-05-10T06:20:02;132.05;;;41.65;;
23181;SDS011;11759;51.282;6.642;2023-05-10T06:22:29;147.18;;;45.78;;
23181;SDS011;11759;51.282;6.642;2023-05-10T06:24:55;119.68;;;32.15;;
23181;SDS011;11759;51.282;6.642;2023-05-10T06:27:22;110.90;;;34.33;;
23181;SDS011;11759;51.282;6.642;2023-05-10T06:29:49;108.88;;;30.88;;
23181;SDS011;11759;51.282;6.642;2023-05-10T06:32:24;142.77;;;48.13;;
23181;SDS011;11759;51.282;6.642;2023-05-10T06:34:51;99.35;;;29.67;;
23181;SDS011;11759;51.282;6.642;2023-05-10T06:37:18;123.78;;;36.55;;
23181;SDS011;11759;51.282;6.642;2023-05-10T06:39:44;107.15;;;30.88;;
23181;SDS011;11759;51.282;6.642;2023-05-10T06:42:11;118.72;;;31.30;;
23181;SDS011;11759;51.282;6.642;2023-05-10T06:44:38;111.00;;;33.05;;
23181;SDS011;11759;51.282;6.642;2023-05-10T06:47:04;112.85;;;29.65;;
23181;SDS011;11759;51.282;6.642;2023-05-10T06:49:31;117.90;;;35.10;;
23181;SDS011;11759;51.282;6.642;2023-05-10T06:51:57;105.55;;;29.40;;
23181;SDS011;11759;51.282;6.642;2023-05-10T06:54:24;130.75;;;41.05;;
23181;SDS011;11759;51.282;6.642;2023-05-10T06:56:50;105.88;;;30.30;;
23181;SDS011;11759;51.282;6.642;2023-05-10T06:59:17;113.68;;;30.85;;
23181;SDS011;11759;51.282;6.642;2023-05-10T07:01:45;109.35;;;29.40;;
23181;SDS011;11759;51.282;6.642;2023-05-10T07:04:12;92.45;;;28.17;;
23181;SDS011;11759;51.282;6.642;2023-05-10T07:06:39;101.72;;;33.33;;
23181;SDS011;11759;51.282;6.642;2023-05-10T07:09:06;95.03;;;27.80;;
23181;SDS011;11759;51.282;6.642;2023-05-10T07:11:33;98.95;;;31.00;;
23181;SDS011;11759;51.282;6.642;2023-05-10T07:14:00;90.90;;;30.33;;
23181;SDS011;11759;51.282;6.642;2023-05-10T07:16:27;88.28;;;27.02;;
23181;SDS011;11759;51.282;6.642;2023-05-10T07:18:54;87.95;;;29.73;;
23181;SDS011;11759;51.282;6.642;2023-05-10T07:21:20;77.13;;;26.88;;
23181;SDS011;11759;51.282;6.642;2023-05-10T07:23:47;81.90;;;25.13;;
23181;SDS011;11759;51.282;6.642;2023-05-10T07:26:13;98.22;;;31.77;;
23181;SDS011;11759;51.282;6.642;2023-05-10T07:28:41;96.70;;;30.27;;
23181;SDS011;11759;51.282;6.642;2023-05-10T07:31:08;103.47;;;32.80;;
23181;SDS011;11759;51.282;6.642;2023-05-10T07:33:34;101.00;;;32.72;;
23181;SDS011;11759;51.282;6.642;2023-05-10T07:36:01;115.15;;;34.97;;
23181;SDS011;11759;51.282;6.642;2023-05-10T07:38:28;131.70;;;34.80;;
23181;SDS011;11759;51.282;6.642;2023-05-10T07:40:54;126.07;;;36.90;;
23181;SDS011;11759;51.282;6.642;2023-05-10T07:43:21;113.97;;;37.05;;
23181;SDS011;11759;51.282;6.642;2023-05-10T07:45:47;99.70;;;31.20;;
23181;SDS011;11759;51.282;6.642;2023-05-10T07:48:14;106.72;;;34.22;;
23181;SDS011;11759;51.282;6.642;2023-05-10T07:50:41;96.82;;;31.48;;
23181;SDS011;11759;51.282;6.642;2023-05-10T07:53:07;100.80;;;35.08;;
23181;SDS011;11759;51.282;6.642;2023-05-10T07:55:34;92.25;;;31.90;;
23181;SDS011;11759;51.282;6.642;2023-05-10T07:58:01;137.43;;;50.95;;
23181;SDS011;11759;51.282;6.642;2023-05-10T08:00:27;101.20;;;32.15;;
23181;SDS011;11759;51.282;6.642;2023-05-10T08:02:54;106.82;;;33.10;;
23181;SDS011;11759;51.282;6.642;2023-05-10T08:05:21;92.50;;;32.80;;
23181;SDS011;11759;51.282;6.642;2023-05-10T08:07:47;99.90;;;33.10;;
23181;SDS011;11759;51.282;6.642;2023-05-10T08:10:14;117.32;;;41.17;;
23181;SDS011;11759;51.282;6.642;2023-05-10T08:12:40;90.95;;;32.67;;
23181;SDS011;11759;51.282;6.642;2023-05-10T08:15:07;111.28;;;40.13;;
23181;SDS011;11759;51.282;6.642;2023-05-10T08:17:34;83.53;;;32.08;;
23181;SDS011;11759;51.282;6.642;2023-05-10T08:20:01;87.57;;;33.92;;
23181;SDS011;11759;51.282;6.642;2023-05-10T08:22:28;86.10;;;31.60;;
23181;SDS011;11759;51.282;6.642;2023-05-10T08:24:54;85.35;;;30.35;;
23181;SDS011;11759;51.282;6.642;2023-05-10T08:27:21;97.40;;;32.33;;
23181;SDS011;11759;51.282;6.642;2023-05-10T08:29:48;79.78;;;29.55;;
23181;SDS011;11759;51.282;6.642;2023-05-10T08:32:16;87.30;;;33.42;;
23181;SDS011;11759;51.282;6.642;2023-05-10T08:34:43;84.70;;;31.13;;
23181;SDS011;11759;51.282;6.642;2023-05-10T08:37:10;84.10;;;30.98;;
23181;SDS011;11759;51.282;6.642;2023-05-10T08:39:39;78.22;;;31.77;;
23181;SDS011;11759;51.282;6.642;2023-05-10T08:42:06;74.93;;;28.55;;
23181;SDS011;11759;51.282;6.642;2023-05-10T08:44:33;101.40;;;44.55;;
23181;SDS011;11759;51.282;6.642;2023-05-10T08:47:05;68.10;;;25.65;;
23181;SDS011;11759;51.282;6.642;2023-05-10T08:49:33;66.90;;;28.30;;
23181;SDS011;11759;51.282;6.642;2023-05-10T08:52:01;61.78;;;25.33;;
23181;SDS011;11759;51.282;6.642;2023-05-10T08:54:31;65.95;;;29.25;;
23181;SDS011;11759;51.282;6.642;2023-05-10T08:56:58;58.92;;;25.40;;
23181;SDS011;11759;51.282;6.642;2023-05-10T08:59:25;56.65;;;24.50;;
23181;SDS011;11759;51.282;6.642;2023-05-10T09:01:52;63.45;;;29.27;;
23181;SDS011;11759;51.282;6.642;2023-05-10T09:04:20;46.83;;;22.75;;
23181;SDS011;11759;51.282;6.642;2023-05-10T09:06:47;61.15;;;25.20;;
23181;SDS011;11759;51.282;6.642;2023-05-10T09:09:14;53.33;;;23.95;;
23181;SDS011;11759;51.282;6.642;2023-05-10T09:11:41;48.08;;;21.38;;
23181;SDS011;11759;51.282;6.642;2023-05-10T09:14:08;51.92;;;25.00;;
23181;SDS011;11759;51.282;6.642;2023-05-10T09:16:35;40.17;;;19.13;;
23181;SDS011;11759;51.282;6.642;2023-05-10T09:19:02;41.80;;;20.85;;
23181;SDS011;11759;51.282;6.642;2023-05-10T09:21:29;49.47;;;21.80;;
23181;SDS011;11759;51.282;6.642;2023-05-10T09:23:57;40.53;;;18.60;;
23181;SDS011;11759;51.282;6.642;2023-05-10T09:26:29;40.50;;;21.08;;
23181;SDS011;11759;51.282;6.642;2023-05-10T09:28:59;40.40;;;19.35;;
23181;SDS011;11759;51.282;6.642;2023-05-10T09:34:28;44.78;;;21.30;;
23181;SDS011;11759;51.282;6.642;2023-05-10T09:36:57;48.78;;;21.30;;
23181;SDS011;11759;51.282;6.642;2023-05-10T09:39:33;53.78;;;24.02;;
23181;SDS011;11759;51.282;6.642;2023-05-10T09:42:02;43.80;;;20.42;;
23181;SDS011;11759;51.282;6.642;2023-05-10T09:44:32;47.38;;;21.80;;
23181;SDS011;11759;51.282;6.642;2023-05-10T09:47:00;41.80;;;20.33;;
23181;SDS011;11759;51.282;6.642;2023-05-10T09:49:28;42.53;;;22.00;;
23181;SDS011;11759;51.282;6.642;2023-05-10T09:52:01;41.60;;;20.38;;
23181;SDS011;11759;51.282;6.642;2023-05-10T09:54:29;45.97;;;21.30;;
23181;SDS011;11759;51.282;6.642;2023-05-10T09:56:55;43.42;;;21.25;;
23181;SDS011;11759;51.282;6.642;2023-05-10T09:59:22;60.55;;;28.98;;
23181;SDS011;11759;51.282;6.642;2023-05-10T10:01:52;38.63;;;18.52;;
23181;SDS011;11759;51.282;6.642;2023-05-10T10:04:21;43.13;;;22.00;;
23181;SDS011;11759;51.282;6.642;2023-05-10T10:06:58;40.45;;;18.33;;
23181;SDS011;11759;51.282;6.642;2023-05-10T10:09:25;46.22;;;21.13;;
23181;SDS011;11759;51.282;6.642;2023-05-10T10:11:53;43.72;;;20.42;;
23181;SDS011;11759;51.282;6.642;2023-05-10T10:14:20;63.00;;;31.63;;
23181;SDS011;11759;51.282;6.642;2023-05-10T10:16:48;35.63;;;18.58;;
23181;SDS011;11759;51.282;6.642;2023-05-10T10:19:35;37.67;;;18.77;;
23181;SDS011;11759;51.282;6.642;2023-05-10T10:22:03;50.08;;;24.73;;
23181;SDS011;11759;51.282;6.642;2023-05-10T10:24:30;37.92;;;18.73;;
23181;SDS011;11759;51.282;6.642;2023-05-10T10:26:58;48.05;;;23.45;;
23181;SDS011;11759;51.282;6.642;2023-05-10T10:29:36;35.67;;;18.77;;
23181;SDS011;11759;51.282;6.642;2023-05-10T10:32:52;35.15;;;17.45;;
23181;SDS011;11759;51.282;6.642;2023-05-10T10:38:07;40.08;;;19.65;;
23181;SDS011;11759;51.282;6.642;2023-05-10T10:40:34;35.33;;;17.05;;
23181;SDS011;11759;51.282;6.642;2023-05-10T10:46:09;38.13;;;18.52;;
23181;SDS011;11759;51.282;6.642;2023-05-10T10:48:35;33.80;;;16.98;;
23181;SDS011;11759;51.282;6.642;2023-05-10T10:51:02;43.55;;;21.02;;
23181;SDS011;11759;51.282;6.642;2023-05-10T10:53:29;36.28;;;18.13;;
23181;SDS011;11759;51.282;6.642;2023-05-10T10:56:03;39.10;;;19.95;;
23181;SDS011;11759;51.282;6.642;2023-05-10T10:58:33;37.70;;;19.38;;
23181;SDS011;11759;51.282;6.642;2023-05-10T11:01:16;55.05;;;27.17;;
23181;SDS011;11759;51.282;6.642;2023-05-10T11:06:35;43.10;;;21.25;;
23181;SDS011;11759;51.282;6.642;2023-05-10T11:09:08;52.17;;;26.42;;
23181;SDS011;11759;51.282;6.642;2023-05-10T11:11:36;43.00;;;22.42;;
23181;SDS011;11759;51.282;6.642;2023-05-10T11:14:15;49.40;;;25.08;;
23181;SDS011;11759;51.282;6.642;2023-05-10T11:16:46;49.85;;;23.95;;
23181;SDS011;11759;51.282;6.642;2023-05-10T11:19:13;57.45;;;31.08;;
23181;SDS011;11759;51.282;6.642;2023-05-10T11:21:45;44.83;;;21.92;;
23181;SDS011;11759;51.282;6.642;2023-05-10T11:24:16;42.22;;;22.80;;
23181;SDS011;11759;51.282;6.642;2023-05-10T11:26:44;34.85;;;17.52;;
23181;SDS011;11759;51.282;6.642;2023-05-10T11:29:12;44.72;;;25.20;;
23181;SDS011;11759;51.282;6.642;2023-05-10T11:31:43;33.88;;;17.80;;
23181;SDS011;11759;51.282;6.642;2023-05-10T11:36:37;36.72;;;19.42;;
23181;SDS011;11759;51.282;6.642;2023-05-10T11:39:04;34.58;;;17.60;;
23181;SDS011;11759;51.282;6.642;2023-05-10T11:41:31;39.55;;;20.08;;
23181;SDS011;11759;51.282;6.642;2023-05-10T11:43:58;33.60;;;16.58;;
23181;SDS011;11759;51.282;6.642;2023-05-10T11:46:26;40.08;;;21.17;;
23181;SDS011;11759;51.282;6.642;2023-05-10T11:48:55;28.83;;;15.95;;
23181;SDS011;11759;51.282;6.642;2023-05-10T11:51:24;36.65;;;19.77;;
23181;SDS011;11759;51.282;6.642;2023-05-10T11:53:52;33.47;;;17.40;;
23181;SDS011;11759;51.282;6.642;2023-05-10T11:56:20;35.55;;;18.63;;
23181;SDS011;11759;51.282;6.642;2023-05-10T11:58:52;33.88;;;16.45;;
23181;SDS011;11759;51.282;6.642;2023-05-10T12:01:20;42.97;;;23.33;;
23181;SDS011;11759;51.282;6.642;2023-05-10T12:03:47;29.80;;;15.93;;
23181;SDS011;11759;51.282;6.642;2023-05-10T12:06:14;26.70;;;16.08;;
23181;SDS011;11759;51.282;6.642;2023-05-10T12:08:45;27.83;;;15.00;;
23181;SDS011;11759;51.282;6.642;2023-05-10T12:11:13;27.63;;;16.50;;
23181;SDS011;11759;51.282;6.642;2023-05-10T12:13:42;26.08;;;15.57;;
23181;SDS011;11759;51.282;6.642;2023-05-10T12:16:12;30.17;;;15.38;;
23181;SDS011;11759;51.282;6.642;2023-05-10T12:18:42;26.73;;;16.02;;
23181;SDS011;11759;51.282;6.642;2023-05-10T12:21:10;27.38;;;16.30;;
23181;SDS011;11759;51.282;6.642;2023-05-10T12:23:38;31.00;;;16.83;;
23181;SDS011;11759;51.282;6.642;2023-05-10T12:26:05;33.60;;;20.70;;
23181;SDS011;11759;51.282;6.642;2023-05-10T12:28:32;27.17;;;17.17;;
23181;SDS011;11759;51.282;6.642;2023-05-10T12:30:59;33.03;;;19.13;;
23181;SDS011;11759;51.282;6.642;2023-05-10T12:33:26;32.83;;;17.90;;
23181;SDS011;11759;51.282;6.642;2023-05-10T12:35:53;35.40;;;22.10;;
23181;SDS011;11759;51.282;6.642;2023-05-10T12:38:24;30.00;;;17.77;;
23181;SDS011;11759;51.282;6.642;2023-05-10T12:40:51;35.08;;;19.88;;
23181;SDS011;11759;51.282;6.642;2023-05-10T12:43:18;29.67;;;18.05;;
23181;SDS011;11759;51.282;6.642;2023-05-10T12:45:44;28.70;;;17.58;;
23181;SDS011;11759;51.282;6.642;2023-05-10T12:48:14;40.95;;;22.70;;
23181;SDS011;11759;51.282;6.642;2023-05-10T12:50:41;33.10;;;18.25;;
23181;SDS011;11759;51.282;6.642;2023-05-10T12:53:07;48.90;;;27.27;;
23181;SDS011;11759;51.282;6.642;2023-05-10T12:55:34;32.80;;;18.92;;
23181;SDS011;11759;51.282;6.642;2023-05-10T12:58:01;38.63;;;22.05;;
23181;SDS011;11759;51.282;6.642;2023-05-10T13:00:27;38.45;;;17.63;;
23181;SDS011;11759;51.282;6.642;2023-05-10T13:02:54;31.80;;;19.10;;
23181;SDS011;11759;51.282;6.642;2023-05-10T13:05:21;31.08;;;18.77;;
23181;SDS011;11759;51.282;6.642;2023-05-10T13:07:47;32.42;;;21.38;;
23181;SDS011;11759;51.282;6.642;2023-05-10T13:10:15;35.53;;;21.17;;
23181;SDS011;11759;51.282;6.642;2023-05-10T13:12:42;32.83;;;19.42;;
23181;SDS011;11759;51.282;6.642;2023-05-10T13:15:09;39.83;;;22.92;;
23181;SDS011;11759;51.282;6.642;2023-05-10T13:17:36;30.00;;;17.55;;
23181;SDS011;11759;51.282;6.642;2023-05-10T13:20:05;33.30;;;20.90;;
23181;SDS011;11759;51.282;6.642;2023-05-10T13:22:32;29.13;;;18.27;;
23181;SDS011;11759;51.282;6.642;2023-05-10T13:25:06;42.42;;;23.50;;
23181;SDS011;11759;51.282;6.642;2023-05-10T13:27:33;32.42;;;18.05;;
23181;SDS011;11759;51.282;6.642;2023-05-10T13:29:59;39.00;;;21.58;;
23181;SDS011;11759;51.282;6.642;2023-05-10T13:32:26;33.58;;;18.98;;
23181;SDS011;11759;51.282;6.642;2023-05-10T13:34:53;39.92;;;23.17;;
23181;SDS011;11759;51.282;6.642;2023-05-10T13:37:20;27.55;;;17.35;;
23181;SDS011;11759;51.282;6.642;2023-05-10T13:39:47;40.17;;;19.35;;
23181;SDS011;11759;51.282;6.642;2023-05-10T13:42:14;36.45;;;18.90;;
23181;SDS011;11759;51.282;6.642;2023-05-10T13:44:40;31.63;;;17.67;;
23181;SDS011;11759;51.282;6.642;2023-05-10T13:47:07;32.28;;;18.85;;
23181;SDS011;11759;51.282;6.642;2023-05-10T13:49:34;35.05;;;18.40;;
23181;SDS011;11759;51.282;6.642;2023-05-10T13:52:00;33.70;;;18.25;;
23181;SDS011;11759;51.282;6.642;2023-05-10T13:54:33;35.83;;;20.60;;
23181;SDS011;11759;51.282;6.642;2023-05-10T13:57:00;29.90;;;17.67;;
23181;SDS011;11759;51.282;6.642;2023-05-10T13:59:27;30.88;;;18.25;;
23181;SDS011;11759;51.282;6.642;2023-05-10T14:01:54;27.88;;;15.90;;
23181;SDS011;11759;51.282;6.642;2023-05-10T14:04:21;30.55;;;17.70;;
23181;SDS011;11759;51.282;6.642;2023-05-10T14:06:48;21.17;;;13.57;;
23181;SDS011;11759;51.282;6.642;2023-05-10T14:09:14;32.63;;;21.27;;
23181;SDS011;11759;51.282;6.642;2023-05-10T14:11:41;30.02;;;16.92;;
23181;SDS011;11759;51.282;6.642;2023-05-10T14:14:09;21.48;;;13.13;;
23181;SDS011;11759;51.282;6.642;2023-05-10T14:16:36;29.42;;;15.98;;
23181;SDS011;11759;51.282;6.642;2023-05-10T14:19:02;20.35;;;12.38;;
23181;SDS011;11759;51.282;6.642;2023-05-10T14:21:29;20.67;;;12.88;;
23181;SDS011;11759;51.282;6.642;2023-05-10T14:23:56;30.48;;;15.25;;
23181;SDS011;11759;51.282;6.642;2023-05-10T14:26:23;45.17;;;17.80;;
23181;SDS011;11759;51.282;6.642;2023-05-10T14:28:49;71.28;;;25.50;;
23181;SDS011;11759;51.282;6.642;2023-05-10T14:31:16;26.38;;;14.85;;
23181;SDS011;11759;51.282;6.642;2023-05-10T14:33:43;21.52;;;11.50;;
23181;SDS011;11759;51.282;6.642;2023-05-10T14:36:09;57.42;;;20.70;;
23181;SDS011;11759;51.282;6.642;2023-05-10T14:38:36;20.75;;;12.15;;
23181;SDS011;11759;51.282;6.642;2023-05-10T14:41:03;30.23;;;15.15;;
23181;SDS011;11759;51.282;6.642;2023-05-10T14:43:30;18.77;;;10.25;;
23181;SDS011;11759;51.282;6.642;2023-05-10T14:45:56;62.72;;;28.83;;
23181;SDS011;11759;51.282;6.642;2023-05-10T14:48:23;21.13;;;11.45;;
23181;SDS011;11759;51.282;6.642;2023-05-10T14:50:49;37.53;;;18.15;;
23181;SDS011;11759;51.282;6.642;2023-05-10T14:53:16;24.55;;;11.55;;
23181;SDS011;11759;51.282;6.642;2023-05-10T14:55:43;32.40;;;15.70;;